Ana Sayfa
METAR-TAF:

METAR-TAF

Havaalanları :

Mehrabad Havalimanı

Tahran, İran

Enlem: 35-41N, Boylam: 051-21E, yükseklik: 1204 m

Güncel hava durumu gözlemi

Rapor saat 16:30 UTC de 20 dakika önce yapıldı.
Sakin rüzgar
Sıcaklık 13°C
Nem 51%
Basınç 1020 hPa
Görüş mesafesi 10 km veya daha fazla
3500 ft yükseklikte az bulutlu
20000 ft yükseklikte parçalı bulutlu

METAR: OIII 221630Z 00000KT 9999 FEW035 SCT200 13/03 Q1019 A3011

Saat: 20:20 (16:50 UTC)

Tahmin

Rapor saat 11:00 UTC de 5 saat ve 50 dakika önce yapıldı.
Ayın 22'si saat 12 UTC'den ayın 23'si saat 18 UTC'ye kadar geçerli Tahmin
Rüzgar güneydoğudan 8 kt
Görüş mesafesi: 8000 m
Geçici
ayın 22'si saat 12 UTC'den ayın 22'si saat 18 UTC'ye kadar
3500 ft yükseklikte az bulutlu, Yükselen kümülüs.
4000 ft yükseklikte parçalı bulutlu
10000 ft yükseklikte parçalı bulutlu

TAF: OIII 221100Z 2212/2318 14008KT 8000 NSC TEMPO 2212/2218 FEW035TCU SCT040 SCT100

4.000'den fazla havaalanı için hava durumu gözlemleri ve tahminleri (METAR ve TAF raporları).

Kullanılabilir istasyonlar harita üzerinde sarı ve kırmızı noktalarla gösterilir.

İstasyonun adını görmek için fareyi noktanın üzerinde gezdirin.

Sonrasında hava gözlem ve tahminlerini görmek için tıklayın.

Haritayı değiştirmek için: yaklaştırmak için siyah artı işaretli yeşil düğmeye ve uzaklaştırmak için de eksi işaretli düğmeye hızla tıklayın; bitişik haritalar için yeşil okları kullanın.


METAR-TAF: